createdAt,value
2022-08-25T00:00:21.526Z,98301.41
2022-08-25T00:02:55.169Z,98302.88
2022-08-25T00:05:29.417Z,98303.88
2022-08-25T00:08:01.542Z,98304.19
2022-08-25T00:10:31.116Z,98304.81
2022-08-25T00:12:59.943Z,98301.84
2022-08-25T00:15:32.179Z,98293.25
2022-08-25T00:18:01.614Z,98300.53
2022-08-25T00:20:31.448Z,98292.75
2022-08-25T00:22:59.842Z,98293.25
2022-08-25T00:25:28.319Z,98290.94
2022-08-25T00:27:57.260Z,98296.53
2022-08-25T00:30:25.698Z,98290.75
2022-08-25T00:32:55.258Z,98301.78
2022-08-25T00:35:27.223Z,98294.19
2022-08-25T00:37:57.177Z,98293.69
2022-08-25T00:40:28.329Z,98300.06
2022-08-25T00:42:57.277Z,98303.97
2022-08-25T00:45:26.415Z,98300.84
2022-08-25T00:47:59.769Z,98297.69
2022-08-25T00:50:29.925Z,98307.06
2022-08-25T00:53:02.499Z,98302.78
2022-08-25T00:55:36.141Z,98297.00
2022-08-25T00:58:13.994Z,98294.69
2022-08-25T01:00:46.840Z,98291.38
2022-08-25T01:03:15.267Z,98291.03
2022-08-25T01:05:46.509Z,98290.50
2022-08-25T01:08:21.142Z,98284.72
2022-08-25T01:10:51.452Z,98282.28
2022-08-25T01:13:25.697Z,98275.16
2022-08-25T01:15:57.205Z,98275.63
2022-08-25T01:18:25.897Z,98279.38
2022-08-25T01:20:56.720Z,98273.78
2022-08-25T01:23:26.313Z,98277.84
2022-08-25T01:26:03.683Z,98268.78
2022-08-25T01:28:32.487Z,98278.22
2022-08-25T01:31:00.992Z,98275.25
2022-08-25T01:33:29.612Z,98281.91
2022-08-25T01:35:59.328Z,98282.69
2022-08-25T01:38:27.810Z,98283.16
2022-08-25T01:40:56.115Z,98289.81
2022-08-25T01:43:38.056Z,98282.25
2022-08-25T01:46:06.643Z,98288.94
2022-08-25T01:48:35.669Z,98287.59
2022-08-25T01:51:05.705Z,98292.47
2022-08-25T01:53:34.567Z,98293.59
2022-08-25T01:56:11.399Z,98288.03
2022-08-25T01:58:45.951Z,98291.94
2022-08-25T02:01:17.779Z,98284.81
2022-08-25T02:03:49.867Z,98283.63
2022-08-25T02:06:29.808Z,98291.28
2022-08-25T02:09:02.100Z,98289.94
2022-08-25T02:11:30.733Z,98290.38
2022-08-25T02:13:59.944Z,98292.16
2022-08-25T02:16:32.457Z,98297.97
2022-08-25T02:19:01.635Z,98297.59
2022-08-25T02:21:32.479Z,98288.34
2022-08-25T02:24:01.278Z,98296.66
2022-08-25T02:26:30.490Z,98291.75
2022-08-25T02:28:58.810Z,98292.84
2022-08-25T02:31:27.693Z,98293.13
2022-08-25T02:33:57.090Z,98286.53
2022-08-25T02:36:25.744Z,98286.81
2022-08-25T02:38:55.438Z,98280.91
2022-08-25T02:41:31.510Z,98280.34
2022-08-25T02:44:00.845Z,98284.09
2022-08-25T02:46:31.077Z,98290.44
2022-08-25T02:48:59.723Z,98285.50
2022-08-25T02:51:30.140Z,98283.19
2022-08-25T02:54:03.059Z,98278.75
2022-08-25T02:56:32.855Z,98272.31
2022-08-25T02:59:01.891Z,98284.03
2022-08-25T03:01:32.292Z,98284.34
2022-08-25T03:04:02.728Z,98282.97
2022-08-25T03:06:31.833Z,98280.34
2022-08-25T03:09:01.702Z,98279.38
2022-08-25T03:11:30.227Z,98277.03
2022-08-25T03:13:58.767Z,98278.28
2022-08-25T03:16:28.081Z,98279.56
2022-08-25T03:18:57.926Z,98275.69
2022-08-25T03:21:27.071Z,98283.97
2022-08-25T03:23:56.510Z,98284.41
2022-08-25T03:26:43.700Z,98282.22
2022-08-25T03:29:13.770Z,98279.88
2022-08-25T03:31:44.702Z,98291.63
2022-08-25T03:34:13.368Z,98278.78
2022-08-25T03:36:41.994Z,98286.81
2022-08-25T03:39:10.652Z,98285.16
2022-08-25T03:41:41.232Z,98283.78
2022-08-25T03:44:10.583Z,98291.50
2022-08-25T03:46:43.167Z,98297.72
2022-08-25T03:49:16.169Z,98288.22
2022-08-25T03:51:48.379Z,98284.06
2022-08-25T03:54:18.440Z,98269.31
2022-08-25T03:56:48.132Z,98279.78
2022-08-25T03:59:16.774Z,98278.13
2022-08-25T04:01:50.271Z,98277.28
2022-08-25T04:04:21.138Z,98275.50
2022-08-25T04:06:49.467Z,98271.38
2022-08-25T04:09:17.757Z,98273.19
2022-08-25T04:11:47.451Z,98268.88
2022-08-25T04:14:21.058Z,98267.66
2022-08-25T04:16:49.426Z,98267.28
2022-08-25T04:19:17.808Z,98265.88
2022-08-25T04:21:46.194Z,98264.66
2022-08-25T04:24:15.438Z,98269.34
2022-08-25T04:26:49.708Z,98269.63
2022-08-25T04:29:23.547Z,98274.03
2022-08-25T04:31:53.495Z,98275.28
2022-08-25T04:34:29.966Z,98282.97
2022-08-25T04:37:01.765Z,98275.13
2022-08-25T04:39:30.923Z,98273.47
2022-08-25T04:42:01.200Z,98278.88
2022-08-25T04:44:30.572Z,98279.00
2022-08-25T04:46:59.435Z,98276.66
2022-08-25T04:49:28.360Z,98282.19
2022-08-25T04:51:57.579Z,98272.69
2022-08-25T04:54:26.083Z,98278.03
2022-08-25T04:56:58.394Z,98279.16
2022-08-25T04:59:29.549Z,98284.41
2022-08-25T05:02:02.258Z,98284.09
2022-08-25T05:04:32.100Z,98281.03
2022-08-25T05:07:01.147Z,98286.28
2022-08-25T05:09:32.266Z,98284.91
2022-08-25T05:12:02.264Z,98283.25
2022-08-25T05:14:33.159Z,98284.34
2022-08-25T05:17:02.117Z,98280.19
2022-08-25T05:19:30.519Z,98277.59
2022-08-25T05:21:58.850Z,98279.09
2022-08-25T05:24:27.899Z,98273.03
2022-08-25T05:26:56.548Z,98267.53
2022-08-25T05:29:25.239Z,98261.19
2022-08-25T05:31:55.191Z,98260.50
2022-08-25T05:34:24.915Z,98276.06
2022-08-25T05:36:53.295Z,98273.59
2022-08-25T05:39:21.577Z,98274.69
2022-08-25T05:41:49.989Z,98275.81
2022-08-25T05:44:21.145Z,98278.28
2022-08-25T05:46:51.129Z,98269.47
2022-08-25T05:49:21.208Z,98275.41
2022-08-25T05:51:49.734Z,98272.78
2022-08-25T05:54:18.208Z,98264.22
2022-08-25T05:56:46.690Z,98258.97
2022-08-25T05:59:15.343Z,98255.13
2022-08-25T06:02:01.608Z,98256.09
2022-08-25T06:04:31.340Z,98256.09
2022-08-25T06:06:59.672Z,98247.25
2022-08-25T06:09:28.172Z,98257.63
2022-08-25T06:11:56.526Z,98253.19
2022-08-25T06:14:25.522Z,98260.94
2022-08-25T06:16:54.131Z,98252.22
2022-08-25T06:19:23.249Z,98260.81
2022-08-25T06:21:56.608Z,98260.66
2022-08-25T06:24:26.430Z,98262.47
2022-08-25T06:26:56.086Z,98267.44
2022-08-25T06:29:24.734Z,98263.69
2022-08-25T06:31:53.537Z,98258.34
2022-08-25T06:34:23.886Z,98271.13
2022-08-25T06:36:53.277Z,98259.56
2022-08-25T06:39:24.012Z,98259.94
2022-08-25T06:41:53.843Z,98261.47
2022-08-25T06:44:22.839Z,98260.94
2022-08-25T06:46:51.791Z,98260.63
2022-08-25T06:49:20.283Z,98260.22
2022-08-25T06:51:49.536Z,98260.78
2022-08-25T06:54:17.962Z,98259.38
2022-08-25T06:56:49.607Z,98255.66
2022-08-25T06:59:19.000Z,98254.53
2022-08-25T07:01:49.679Z,98259.66
2022-08-25T07:04:18.707Z,98256.75
2022-08-25T07:06:47.192Z,98248.56
2022-08-25T07:09:16.297Z,98246.66
2022-08-25T07:11:47.175Z,98244.56
2022-08-25T07:14:18.329Z,98246.75
2022-08-25T07:16:50.437Z,98248.94
2022-08-25T07:19:21.408Z,98236.22
2022-08-25T07:21:54.241Z,98239.38
2022-08-25T07:24:23.876Z,98241.72
2022-08-25T07:26:54.209Z,98235.66
2022-08-25T07:32:13.000Z,98244.72
2022-08-25T07:34:59.272Z,98237.56
2022-08-25T07:37:47.835Z,98227.56
2022-08-25T07:40:19.854Z,98227.25
2022-08-25T07:42:49.990Z,98226.50
2022-08-25T07:45:20.761Z,98222.69
2022-08-25T07:47:52.077Z,98230.41
2022-08-25T07:50:21.797Z,98237.56
2022-08-25T07:52:55.271Z,98226.47
2022-08-25T07:55:24.637Z,98232.69
2022-08-25T07:58:10.991Z,98234.72
2022-08-25T08:00:42.359Z,98240.34
2022-08-25T08:03:19.906Z,98231.22
2022-08-25T08:05:59.895Z,98231.59
2022-08-25T08:08:28.788Z,98229.34
2022-08-25T08:11:05.398Z,98228.22
2022-08-25T08:13:40.773Z,98232.34
2022-08-25T08:16:10.874Z,98234.38
2022-08-25T08:18:42.474Z,98231.16
2022-08-25T08:21:14.184Z,98225.78
2022-08-25T08:23:49.288Z,98230.16
2022-08-25T08:26:18.491Z,98223.28
2022-08-25T08:28:51.921Z,98221.16
2022-08-25T08:31:21.645Z,98223.34
2022-08-25T08:33:52.155Z,98223.72
2022-08-25T08:36:22.722Z,98219.28
2022-08-25T08:38:54.708Z,98214.38
2022-08-25T08:42:18.495Z,98206.88
2022-08-25T08:45:18.200Z,98209.72
2022-08-25T08:48:02.878Z,98202.63
2022-08-25T08:50:44.539Z,98205.34
2022-08-25T08:53:19.673Z,98211.94
2022-08-25T08:55:54.523Z,98204.69
2022-08-25T08:58:28.061Z,98203.41
2022-08-25T09:01:01.812Z,98203.09
2022-08-25T09:03:36.051Z,98198.34
2022-08-25T09:06:13.691Z,98186.34
2022-08-25T09:08:45.021Z,98197.28
2022-08-25T09:11:24.841Z,98196.00
2022-08-25T09:14:11.065Z,98190.06
2022-08-25T09:16:58.289Z,98196.16
2022-08-25T09:19:47.177Z,98188.75
2022-08-25T09:25:18.782Z,98181.72
2022-08-25T09:28:02.991Z,98185.19
2022-08-25T09:30:42.031Z,98182.25
2022-08-25T09:33:20.989Z,98176.00
2022-08-25T09:35:53.682Z,98181.47
2022-08-25T09:38:22.824Z,98179.97
2022-08-25T09:40:55.615Z,98177.03
2022-08-25T09:43:32.065Z,98179.34
2022-08-25T09:46:03.855Z,98179.16
2022-08-25T09:48:40.868Z,98172.09
2022-08-25T09:51:21.242Z,98165.16
2022-08-25T09:53:56.601Z,98158.09
2022-08-25T09:56:27.864Z,98160.56
2022-08-25T09:59:03.120Z,98159.56
2022-08-25T10:01:34.667Z,98163.84
2022-08-25T10:04:10.772Z,98160.72
2022-08-25T10:06:49.106Z,98148.38
2022-08-25T10:09:30.401Z,98144.41
2022-08-25T10:12:04.824Z,98142.44
2022-08-25T10:14:38.803Z,98146.03
2022-08-25T10:17:24.650Z,98140.59
2022-08-25T10:20:17.673Z,98140.75
2022-08-25T10:22:48.323Z,98134.97
2022-08-25T10:25:26.521Z,98140.06
2022-08-25T10:28:08.265Z,98130.00
2022-08-25T10:30:56.252Z,98126.69
2022-08-25T10:33:36.331Z,98116.44
2022-08-25T10:36:15.398Z,98116.41
2022-08-25T10:38:55.654Z,98118.88
2022-08-25T10:41:49.369Z,98115.88
2022-08-25T10:44:59.075Z,98110.09
2022-08-25T10:47:55.434Z,98100.00
2022-08-25T10:50:30.547Z,98093.03
2022-08-25T10:53:16.949Z,98088.56
2022-08-25T10:55:57.576Z,98095.06
2022-08-25T10:59:04.594Z,98091.91
2022-08-25T11:01:48.838Z,98094.28
2022-08-25T11:04:29.853Z,98085.19
2022-08-25T11:07:05.871Z,98086.84
2022-08-25T11:09:41.726Z,98074.81
2022-08-25T11:12:15.360Z,98078.28
2022-08-25T11:14:51.243Z,98073.28
2022-08-25T11:17:26.037Z,98065.81
2022-08-25T11:19:58.968Z,98070.41
2022-08-25T11:22:33.435Z,98068.53
2022-08-25T11:25:13.025Z,98059.19
2022-08-25T11:27:53.524Z,98057.13
2022-08-25T11:30:23.053Z,98058.66
2022-08-25T11:32:56.757Z,98062.59
2022-08-25T11:35:32.375Z,98059.03
2022-08-25T11:38:26.425Z,98054.56
2022-08-25T11:41:11.135Z,98048.75
2022-08-25T11:43:51.139Z,98046.75
2022-08-25T11:46:39.316Z,98043.56
2022-08-25T11:49:32.546Z,98052.13
2022-08-25T11:52:02.958Z,98040.56
2022-08-25T11:54:38.775Z,98037.25
2022-08-25T11:57:22.786Z,98044.53
2022-08-25T12:00:11.317Z,98039.81
2022-08-25T12:02:43.660Z,98036.41
2022-08-25T12:05:47.653Z,98039.84
2022-08-25T12:08:33.712Z,98034.44
2022-08-25T12:11:10.953Z,98039.66
2022-08-25T12:13:48.411Z,98028.91
2022-08-25T12:16:43.535Z,98026.66
2022-08-25T12:19:32.908Z,98019.72
2022-08-25T12:22:56.697Z,98016.78
2022-08-25T12:25:50.299Z,98029.97
2022-08-25T12:28:58.869Z,98019.59
2022-08-25T12:32:04.645Z,98007.31
2022-08-25T12:34:54.712Z,98018.78
2022-08-25T12:37:25.583Z,98017.63
2022-08-25T12:40:01.446Z,98016.03
2022-08-25T12:42:33.535Z,98008.09
2022-08-25T12:45:35.236Z,98013.47
2022-08-25T12:48:56.823Z,98008.59
2022-08-25T12:51:28.419Z,98008.44
2022-08-25T12:54:12.104Z,97997.53
2022-08-25T12:56:49.263Z,98004.91
2022-08-25T12:59:21.417Z,97998.78
2022-08-25T13:02:11.900Z,98001.19
2022-08-25T13:05:04.708Z,97997.69
2022-08-25T13:08:15.109Z,98005.25
2022-08-25T13:10:50.610Z,98001.59
2022-08-25T13:13:36.880Z,97995.38
2022-08-25T13:16:10.799Z,97991.81
2022-08-25T13:18:41.548Z,97993.59
2022-08-25T13:21:18.141Z,97989.75
2022-08-25T13:23:49.782Z,97986.00
2022-08-25T13:26:25.597Z,97978.16
2022-08-25T13:28:59.443Z,97975.72
2022-08-25T13:31:29.874Z,97979.41
2022-08-25T13:34:03.266Z,97971.22
2022-08-25T13:37:01.340Z,97971.59
2022-08-25T13:39:55.096Z,97968.72
2022-08-25T13:42:27.415Z,97967.97
2022-08-25T13:44:57.639Z,97969.00
2022-08-25T13:47:43.842Z,97966.34
2022-08-25T13:50:23.155Z,97967.03
2022-08-25T13:52:58.225Z,97966.34
2022-08-25T13:55:38.222Z,97953.41
2022-08-25T13:58:24.195Z,97957.06
2022-08-25T14:01:23.114Z,97958.53
2022-08-25T14:04:21.892Z,97949.25
2022-08-25T14:07:14.843Z,97944.44
2022-08-25T14:09:52.512Z,97949.06
2022-08-25T14:12:37.821Z,97947.75
2022-08-25T14:15:13.876Z,97947.59
2022-08-25T14:20:25.586Z,97935.72
2022-08-25T14:23:00.215Z,97943.78
2022-08-25T14:25:31.845Z,97941.94
2022-08-25T14:28:07.330Z,97947.88
2022-08-25T14:30:41.015Z,97941.44
2022-08-25T14:33:13.310Z,97930.31
2022-08-25T14:35:44.734Z,97934.84
2022-08-25T14:38:15.515Z,97930.84
2022-08-25T14:40:45.742Z,97933.94
2022-08-25T14:43:14.849Z,97938.31
2022-08-25T14:45:46.438Z,97927.22
2022-08-25T14:48:26.119Z,97934.03
2022-08-25T14:50:57.663Z,97926.84
2022-08-25T14:53:28.717Z,97923.38
2022-08-25T14:55:59.106Z,97916.38
2022-08-25T14:58:33.888Z,97911.50
2022-08-25T15:01:06.133Z,97914.75
2022-08-25T15:03:42.823Z,97916.75
2022-08-25T15:06:18.677Z,97912.19
2022-08-25T15:09:05.872Z,97909.13
2022-08-25T15:11:35.257Z,97906.38
2022-08-25T15:14:03.948Z,97899.53
2022-08-25T15:16:37.866Z,97901.25
2022-08-25T15:19:08.231Z,97902.84
2022-08-25T15:21:37.289Z,97892.69
2022-08-25T15:24:08.734Z,97899.53
2022-08-25T15:26:44.495Z,97887.44
2022-08-25T15:29:12.954Z,97899.38
2022-08-25T15:31:41.519Z,97897.31
2022-08-25T15:34:11.822Z,97889.19
2022-08-25T15:36:41.550Z,97890.94
2022-08-25T15:39:12.591Z,97887.31
2022-08-25T15:41:42.817Z,97887.41
2022-08-25T15:44:11.441Z,97883.34
2022-08-25T15:46:46.961Z,97888.63
2022-08-25T15:49:23.087Z,97882.56
2022-08-25T15:51:54.349Z,97877.81
2022-08-25T15:54:26.761Z,97874.19
2022-08-25T15:56:56.597Z,97874.78
2022-08-25T15:59:26.017Z,97871.69
2022-08-25T16:01:56.715Z,97860.69
2022-08-25T16:04:28.791Z,97864.72
2022-08-25T16:06:57.172Z,97866.25
2022-08-25T16:09:28.624Z,97874.69
2022-08-25T16:12:03.936Z,97869.91
2022-08-25T16:14:32.547Z,97862.00
2022-08-25T16:17:01.107Z,97860.78
2022-08-25T16:19:30.393Z,97863.91
2022-08-25T16:22:00.140Z,97865.06
2022-08-25T16:24:30.004Z,97868.34
2022-08-25T16:27:11.771Z,97864.09
2022-08-25T16:29:41.924Z,97858.00
2022-08-25T16:32:11.592Z,97866.63
2022-08-25T16:34:43.211Z,97861.00
2022-08-25T16:37:13.467Z,97859.25
2022-08-25T16:39:45.569Z,97855.25
2022-08-25T16:42:15.207Z,97853.38
2022-08-25T16:44:43.590Z,97852.06
2022-08-25T16:47:14.269Z,97852.84
2022-08-25T16:49:47.138Z,97854.78
2022-08-25T16:52:40.575Z,97850.97
2022-08-25T16:55:13.583Z,97843.41
2022-08-25T16:57:45.299Z,97849.31
2022-08-25T17:00:21.798Z,97846.38
2022-08-25T17:02:54.211Z,97845.03
2022-08-25T17:05:22.896Z,97847.41
2022-08-25T17:08:05.700Z,97842.78
2022-08-25T17:10:38.416Z,97841.69
2022-08-25T17:13:07.862Z,97844.81
2022-08-25T17:15:40.613Z,97842.84
2022-08-25T17:18:09.162Z,97838.16
2022-08-25T17:20:39.889Z,97847.13
2022-08-25T17:23:12.774Z,97839.72
2022-08-25T17:25:44.181Z,97842.72
2022-08-25T17:28:13.561Z,97838.38
2022-08-25T17:30:43.325Z,97842.94
2022-08-25T17:33:12.290Z,97843.84
2022-08-25T17:35:42.777Z,97844.44
2022-08-25T17:38:13.025Z,97849.09
2022-08-25T17:40:43.248Z,97847.81
2022-08-25T17:43:12.676Z,97842.53
2022-08-25T17:45:41.951Z,97848.19
2022-08-25T17:48:13.880Z,97849.81
2022-08-25T17:50:42.616Z,97850.09
2022-08-25T17:53:12.278Z,97847.16
2022-08-25T17:55:43.541Z,97850.69
2022-08-25T17:58:17.062Z,97854.41
2022-08-25T18:00:47.030Z,97858.78
2022-08-25T18:03:15.324Z,97856.69
2022-08-25T18:05:45.014Z,97854.88
2022-08-25T18:08:14.617Z,97854.69
2022-08-25T18:10:44.679Z,97852.00
2022-08-25T18:13:13.639Z,97856.31
2022-08-25T18:15:43.877Z,97860.59
2022-08-25T18:18:12.740Z,97863.28
2022-08-25T18:20:41.696Z,97865.50
2022-08-25T18:23:12.569Z,97873.47
2022-08-25T18:25:42.972Z,97875.88
2022-08-25T18:28:13.104Z,97872.63
2022-08-25T18:30:43.114Z,97880.81
2022-08-25T18:33:12.101Z,97870.34
2022-08-25T18:35:40.508Z,97870.28
2022-08-25T18:38:27.732Z,97880.44
2022-08-25T18:40:58.242Z,97876.91
2022-08-25T18:43:31.910Z,97873.97
2022-08-25T18:46:04.680Z,97873.25
2022-08-25T18:48:34.431Z,97878.84
2022-08-25T18:51:03.040Z,97872.53
2022-08-25T18:53:37.461Z,97876.31
2022-08-25T18:56:19.184Z,97875.56
2022-08-25T18:58:49.508Z,97871.16
2022-08-25T19:01:20.543Z,97877.78
2022-08-25T19:03:50.613Z,97880.75
2022-08-25T19:06:20.754Z,97880.00
2022-08-25T19:08:49.602Z,97878.19
2022-08-25T19:11:22.314Z,97874.41
2022-08-25T19:13:52.640Z,97876.53
2022-08-25T19:16:34.642Z,97871.47
2022-08-25T19:19:06.397Z,97875.44
2022-08-25T19:21:38.610Z,97886.38
2022-08-25T19:24:08.153Z,97885.00
2022-08-25T19:26:38.166Z,97884.44
2022-08-25T19:29:14.960Z,97887.13
2022-08-25T19:31:46.614Z,97883.25
2022-08-25T19:34:21.459Z,97883.72
2022-08-25T19:36:50.781Z,97886.44
2022-08-25T19:39:19.975Z,97885.66
2022-08-25T19:41:49.016Z,97886.91
2022-08-25T19:44:19.273Z,97888.59
2022-08-25T19:46:47.851Z,97890.25
2022-08-25T19:49:26.160Z,97891.72
2022-08-25T19:51:57.139Z,97884.22
2022-08-25T19:54:30.232Z,97891.19
2022-08-25T19:56:59.529Z,97884.47
2022-08-25T19:59:40.435Z,97883.66
2022-08-25T20:02:16.125Z,97894.91
2022-08-25T20:04:49.593Z,97885.09
2022-08-25T20:07:19.208Z,97893.91
2022-08-25T20:09:48.190Z,97898.59
2022-08-25T20:12:17.346Z,97902.09
2022-08-25T20:14:48.192Z,97894.53
2022-08-25T20:17:23.868Z,97906.19
2022-08-25T20:19:55.916Z,97896.16
2022-08-25T20:22:26.828Z,97907.63
2022-08-25T20:24:57.893Z,97904.31
2022-08-25T20:27:34.519Z,97908.00
2022-08-25T20:30:08.944Z,97909.38
2022-08-25T20:32:37.801Z,97912.47
2022-08-25T20:35:09.924Z,97915.31
2022-08-25T20:37:42.076Z,97923.25
2022-08-25T20:40:12.403Z,97918.97
2022-08-25T20:42:41.437Z,97913.63
2022-08-25T20:45:17.800Z,97912.59
2022-08-25T20:47:46.212Z,97916.69
2022-08-25T20:50:43.023Z,97919.47
2022-08-25T20:53:13.714Z,97926.19
2022-08-25T20:55:43.740Z,97926.59
2022-08-25T20:58:12.691Z,97921.47
2022-08-25T21:00:44.690Z,97928.56
2022-08-25T21:03:13.618Z,97926.50
2022-08-25T21:05:43.886Z,97922.78
2022-08-25T21:08:12.931Z,97922.56
2022-08-25T21:10:41.781Z,97932.31
2022-08-25T21:13:10.354Z,97924.31
2022-08-25T21:15:40.450Z,97921.66
2022-08-25T21:18:10.358Z,97934.81
2022-08-25T21:20:40.294Z,97922.53
2022-08-25T21:23:08.829Z,97938.81
2022-08-25T21:25:42.259Z,97937.56
2022-08-25T21:28:10.788Z,97931.41
2022-08-25T21:30:44.692Z,97933.59
2022-08-25T21:33:17.404Z,97941.91
2022-08-25T21:35:47.183Z,97937.38
2022-08-25T21:38:16.169Z,97935.88
2022-08-25T21:40:45.069Z,97948.25
2022-08-25T21:43:13.689Z,97938.56
2022-08-25T21:45:46.764Z,97934.53
2022-08-25T21:48:17.624Z,97941.91
2022-08-25T21:50:46.377Z,97938.22
2022-08-25T21:53:14.846Z,97941.69
2022-08-25T21:55:45.205Z,97946.06
2022-08-25T21:58:13.702Z,97940.16
2022-08-25T22:00:44.583Z,97945.59
2022-08-25T22:03:13.206Z,97945.25
2022-08-25T22:05:43.226Z,97940.97
2022-08-25T22:08:14.349Z,97940.16
2022-08-25T22:10:45.543Z,97942.44
2022-08-25T22:13:14.199Z,97947.16
2022-08-25T22:15:42.905Z,97932.94
2022-08-25T22:18:11.467Z,97934.75
2022-08-25T22:20:41.427Z,97930.66
2022-08-25T22:23:20.485Z,97928.19
2022-08-25T22:25:49.443Z,97923.63
2022-08-25T22:28:20.011Z,97928.66
2022-08-25T22:30:49.153Z,97931.59
2022-08-25T22:33:18.156Z,97931.97
2022-08-25T22:35:47.066Z,97933.16
2022-08-25T22:38:17.205Z,97933.25
2022-08-25T22:40:46.453Z,97930.97
2022-08-25T22:43:15.053Z,97930.50
2022-08-25T22:45:43.768Z,97929.06
2022-08-25T22:48:12.368Z,97934.72
2022-08-25T22:50:40.892Z,97918.97
2022-08-25T22:53:09.523Z,97919.63
2022-08-25T22:55:44.654Z,97922.38
2022-08-25T22:58:15.964Z,97925.91
2022-08-25T23:00:44.513Z,97927.75
2022-08-25T23:03:13.148Z,97925.44
2022-08-25T23:05:41.757Z,97925.44
2022-08-25T23:08:10.251Z,97920.88
2022-08-25T23:10:38.721Z,97919.59
2022-08-25T23:13:08.892Z,97910.41
2022-08-25T23:15:37.971Z,97909.13
2022-08-25T23:18:07.763Z,97910.13
2022-08-25T23:20:53.656Z,97901.94
2022-08-25T23:23:22.718Z,97904.09
2022-08-25T23:25:51.384Z,97908.91
2022-08-25T23:28:22.084Z,97910.09
2022-08-25T23:30:59.372Z,97908.66
2022-08-25T23:33:28.578Z,97910.97
2022-08-25T23:36:01.150Z,97907.88
2022-08-25T23:38:29.745Z,97908.38
2022-08-25T23:40:59.528Z,97907.44
2022-08-25T23:43:29.640Z,97900.41
2022-08-25T23:45:58.787Z,97905.59
2022-08-25T23:48:27.736Z,97914.84
2022-08-25T23:50:57.572Z,97915.19
2022-08-25T23:53:26.506Z,97914.25
2022-08-25T23:55:56.137Z,97908.69
2022-08-25T23:58:26.027Z,97899.63
